Ely Municipal Airport Ely US
ICAO: KELO
IATA: ELO
Category: Medium
Scheduled Services: No

Elevation: 1456 ft
TransAlt. 18000 ft.

Airport Communications:
AWOS 3:132.025
PRINCETON RDO:109.6
CTAF/UNICOM:122.8

KELO Zoom In..

If you have problems with the map follow the link
https://www.worldairports.se/pages/airport.php?
ICAO=KELO

Runways:

(A) RW 12 length 5596 ft width 100 ft
---- / hdg 120

(B) RW 30 length 5596 ft width 100 ft
---- / hdg 300

Location; KELO
Day. 11 / Time. 13.16 Zulu
* Altimeter: 30.15
* Temperature: -29° c. 20.2°f.
* Wind from: 230° Speed 05 kn.
Dewpoint: -32° c.
Visibility: 10 Statute Miles.
Clouds: Clear (automated report).

KELO 111316Z AUTO 23005KT 10SM CLR M29/M32 A3015 RMK AO2


Wind From 230°
Speed 05 kn.

 
 
jpsmedia worldairports.se 2019   terms of use